Houston, Texas
Traffic Map
Current Weather Conditions
Houston, Texas
Broken Clouds
Broken Clouds
29°
Feels Like: 31°
Wind Chill: 29° Ceiling: 25000
Heat Index: 31° Visibility: 10mi
Dew Point: 21° Wind: 7mph
Humidity: 61% Direction: 120° (ESE)
Pressure: 29.69in Gusts: 0mph
Raw Report DataKIAH 302253Z 12006KT 10SM FEW043 BKN250 29/21 A2969 RMK AO2 SLP053 T02890206
Traffic Incident Summary
Active as of:
Severity:
Category:
InformationThere was an issue retrieving the traffic information for this location. Please try a different location or try again shortly.
Advertisements
Track Severe Weather on mobile